Sichem Hawk — 9HSE9 — position and weather

sailwx.info

Track history (hours):
 
Tides and Currents Weather Stations Pressure Air Temp Water Temp Dewpoint Dewpoint Depression Visibility Wind Speed Wind Dir Waves Ship Positions

Sichem Hawk

Last reported at 2017-Jun-29 01:56 UTC. Time now 2017-Jun-29 02:15 UTC.
Position N 28°08' W 015°25'.

Length 170 m; draft 8.2 m.

Type: Ship. MMSI: 249445000.

Date/timePositionNaut miles runAvg speedWind from/ knotsBaromVisibWave heightAir tempDewpointWater temp
2017-Jun-29 01:56N 28°08' W 015°25'0 0.0
2017-Jun-29 01:29N 28°08' W 015°25'0 0.0
2017-Jun-29 00:59N 28°08' W 015°25'0 0.0
2017-Jun-29 00:29N 28°08' W 015°25'0 0.0
2017-Jun-28 23:59N 28°08' W 015°25'0 0.0
2017-Jun-28 23:29N 28°08' W 015°25'0 0.0
2017-Jun-28 22:59N 28°08' W 015°25'0 0.0
2017-Jun-28 22:29N 28°08' W 015°25'0 0.0
2017-Jun-28 21:56N 28°08' W 015°25'0 0.0
2017-Jun-28 21:29N 28°08' W 015°25'0 0.0
2017-Jun-28 20:59N 28°08' W 015°25'0 0.0
2017-Jun-28 20:29N 28°08' W 015°25'0 0.0
2017-Jun-28 19:59N 28°08' W 015°25'0 0.0
2017-Jun-28 19:29N 28°08' W 015°25'0 0.0
2017-Jun-28 19:01N 28°08' W 015°25'1 2.9
2017-Jun-28 18:30N 28°07' W 015°24'2 3.9
2017-Jun-28 18:00N 28°07' W 015°22'2 4.9
2017-Jun-28 17:30N 28°09' W 015°20'4 7.3
2017-Jun-28 17:00N 28°12' W 015°18'612.2
2017-Jun-28 16:30N 28°16' W 015°13'714.4
2017-Jun-28 16:00N 28°21' W 015°07'714.7
2017-Jun-28 15:30N 28°26' W 015°01'714.7
2017-Jun-28 15:00N 28°32' W 014°55'1514.6
2017-Jun-28 14:00N 28°42' W 014°43'714.6
2017-Jun-28 13:30N 28°47' W 014°38'714.6
2017-Jun-28 13:00N 28°53' W 014°32'714.5
2017-Jun-28 12:30N 28°58' W 014°26'714.7
2017-Jun-28 12:00N 29°03' W 014°20'714.5
2017-Jun-28 11:30N 29°08' W 014°14'714.9
2017-Jun-28 11:00N 29°13' W 014°08'714.8
2017-Jun-28 10:30N 29°19' W 014°02'714.8
2017-Jun-28 10:00N 29°24' W 013°57'714.7
2017-Jun-28 09:30N 29°29' W 013°51'714.6
2017-Jun-28 09:00N 29°35' W 013°45'714.4
2017-Jun-28 08:30N 29°40' W 013°39'714.3
2017-Jun-28 08:00N 29°45' W 013°33'714.6
2017-Jun-28 07:30N 29°50' W 013°27'714.9
2017-Jun-28 07:00N 29°55' W 013°21'815.2
2017-Jun-28 06:30N 30°01' W 013°15'815.1
2017-Jun-28 06:00N 30°06' W 013°09'815.4
2017-Jun-28 05:30N 30°12' W 013°03'815.9
2017-Jun-28 05:00N 30°17' W 012°56'1216.3
2017-Jun-28 04:15N 30°26' W 012°47'516.3
2017-Jun-28 03:58N 30°30' W 012°43'1316.2
2017-Jun-28 03:08N 30°39' W 012°32'516.0
2017-Jun-28 02:51N 30°43' W 012°28'715.8
2017-Jun-28 02:25N 30°47' W 012°23'1016.0
2017-Jun-28 01:46N 30°55' W 012°14'416.1
2017-Jun-28 01:30N 30°57' W 012°10'816.2
2017-Jun-28 01:00N 31°03' W 012°03'916.4
2017-Jun-28 00:28N 31°09' W 011°56'1015.9
2017-Jun-27 23:50N 31°17' W 011°48'816.0
2017-Jun-27 23:20N 31°22' W 011°42'716.0
2017-Jun-27 22:55N 31°27' W 011°36'616.0
2017-Jun-27 22:30N 31°32' W 011°31'815.8
2017-Jun-27 22:00N 31°38' W 011°25'816.0
2017-Jun-27 21:30N 31°44' W 011°18'815.9
2017-Jun-27 21:00N 31°49' W 011°12'815.8
2017-Jun-27 20:30N 31°55' W 011°05'1215.7
2017-Jun-27 19:44N 32°03' W 010°55'715.8
2017-Jun-27 19:15N 32°09' W 010°49'815.6
2017-Jun-27 18:46N 32°14' W 010°42'515.5
2017-Jun-27 18:28N 32°17' W 010°38'815.5
2017-Jun-27 17:58N 32°22' W 010°32'915.3
2017-Jun-27 17:23N 32°29' W 010°24'3215.9
2017-Jun-27 15:24N 32°52' W 009°59'2515.8
2017-Jun-27 13:50N 33°10' W 009°38'615.6
2017-Jun-27 13:27N 33°14' W 009°33'1616.0
2017-Jun-27 12:29N 33°25' W 009°19'18315.2
2017-Jun-27 00:26N 35°36' W 006°44'615.0
2017-Jun-27 00:00N 35°40' W 006°38'714.8
2017-Jun-26 23:30N 35°46' W 006°32'814.9
2017-Jun-26 22:58N 35°52' W 006°25'913.7
2017-Jun-26 22:20N 35°57' W 006°17'514.9
2017-Jun-26 22:00N 35°57' W 006°11'1114.1
2017-Jun-26 21:13N 35°57' W 005°57'613.2
2017-Jun-26 20:47N 35°57' W 005°50'911.6
2017-Jun-26 19:59N 35°57' W 005°38'510.3
2017-Jun-26 19:31N 35°59' W 005°33'510.8
2017-Jun-26 19:00N 36°01' W 005°26'611.3
2017-Jun-26 18:30N 36°06' W 005°23'4 8.2
2017-Jun-26 18:00N 36°10' W 005°24'1 0.0
2017-Jun-25 14:18N 36°11' W 005°24'2 3.0
2017-Jun-25 13:30N 36°08' W 005°25'0 0.1
2017-Jun-25 12:59N 36°08' W 005°25'0 0.0
2017-Jun-25 12:05N 36°08' W 005°25'0 0.1
2017-Jun-25 11:59N 36°08' W 005°25'0 0.0
2017-Jun-25 11:29N 36°08' W 005°25'0 0.1
2017-Jun-25 10:59N 36°08' W 005°25'0 0.0
2017-Jun-25 07:11N 36°08' W 005°25'0 0.0
2017-Jun-25 06:41N 36°08' W 005°25'0 0.0
2017-Jun-25 06:29N 36°08' W 005°25'0 0.1
2017-Jun-25 05:53N 36°08' W 005°25'0 0.1
2017-Jun-25 05:29N 36°08' W 005°25'0 0.1
2017-Jun-25 04:59N 36°08' W 005°25'0 0.2
2017-Jun-25 04:29N 36°08' W 005°25'0 0.2
2017-Jun-25 03:59N 36°08' W 005°25'0 0.2
2017-Jun-25 03:23N 36°08' W 005°25'0 0.1
2017-Jun-25 02:59N 36°08' W 005°25'0 0.1
2017-Jun-25 02:29N 36°08' W 005°25'0 0.2
2017-Jun-25 01:53N 36°08' W 005°25'0 0.2
2017-Jun-25 01:29N 36°08' W 005°25'0 0.0
2017-Jun-25 00:56N 36°08' W 005°25'0 0.0
2017-Jun-25 00:29N 36°08' W 005°25'0 0.1
2017-Jun-24 23:47N 36°08' W 005°25'0 0.5
2017-Jun-24 23:29N 36°08' W 005°25'0 0.1
2017-Jun-24 22:59N 36°08' W 005°25'0 0.1
2017-Jun-24 22:29N 36°08' W 005°25'0 0.0
2017-Jun-24 21:59N 36°08' W 005°25'0 0.2
2017-Jun-24 21:05N 36°08' W 005°25'0 0.1
2017-Jun-24 20:47N 36°08' W 005°25'0 0.0
2017-Jun-24 20:29N 36°08' W 005°25'0 0.0
2017-Jun-24 19:59N 36°08' W 005°25'0 0.0
2017-Jun-24 19:29N 36°08' W 005°25'0 0.0
2017-Jun-24 18:59N 36°08' W 005°25'0 0.0
2017-Jun-24 18:29N 36°08' W 005°25'0 0.1
2017-Jun-24 17:53N 36°08' W 005°25'0 0.1
2017-Jun-24 17:29N 36°08' W 005°25'0 0.0
2017-Jun-24 16:56N 36°08' W 005°25'0 0.0
2017-Jun-24 16:29N 36°08' W 005°25'0 0.1
2017-Jun-24 15:47N 36°08' W 005°25'0 0.2
2017-Jun-24 15:17N 36°08' W 005°25'0 0.3
2017-Jun-24 14:59N 36°08' W 005°25'0 0.1
2017-Jun-24 13:59N 36°08' W 005°25'0 0.1
2017-Jun-24 13:23N 36°08' W 005°25'0 0.1
2017-Jun-24 12:59N 36°08' W 005°25'0 0.1
2017-Jun-24 12:29N 36°08' W 005°25'0 0.0
2017-Jun-24 11:59N 36°08' W 005°25'0 0.1
2017-Jun-24 11:29N 36°08' W 005°25'0 0.0
2017-Jun-24 10:59N 36°08' W 005°25'0 0.1
2017-Jun-24 10:29N 36°08' W 005°25'0 0.0
2017-Jun-24 09:47N 36°08' W 005°25'0 0.3
2017-Jun-24 09:29N 36°08' W 005°25'0 0.1
2017-Jun-24 08:53N 36°08' W 005°25'0 0.2
2017-Jun-24 08:23N 36°08' W 005°25'0 0.1
2017-Jun-24 07:56N 36°08' W 005°25'0 0.1
2017-Jun-24 07:29N 36°08' W 005°25'0 0.0
2017-Jun-24 06:56N 36°08' W 005°25'0 0.1
2017-Jun-24 06:23N 36°08' W 005°25'0 0.0
2017-Jun-24 05:59N 36°08' W 005°25'0 0.1
2017-Jun-24 05:29N 36°08' W 005°25'0 0.0
2017-Jun-24 04:59N 36°08' W 005°25'0 0.1
2017-Jun-24 04:29N 36°08' W 005°25'0 0.0
2017-Jun-24 03:53N 36°08' W 005°25'0 0.0
2017-Jun-24 03:29N 36°08' W 005°25'0 0.0
2017-Jun-24 02:59N 36°08' W 005°25'0 0.0
2017-Jun-24 02:29N 36°08' W 005°25'0 0.1
2017-Jun-24 01:59N 36°08' W 005°25'0 0.1
2017-Jun-24 01:29N 36°08' W 005°25'0 0.1
2017-Jun-24 00:56N 36°08' W 005°25'0 0.1
2017-Jun-24 00:29N 36°08' W 005°25'0 0.1
2017-Jun-23 23:59N 36°08' W 005°25'0 0.2
2017-Jun-23 23:29N 36°08' W 005°25'0 0.3
2017-Jun-23 22:59N 36°08' W 005°25'0 0.1
2017-Jun-23 22:29N 36°08' W 005°25'0 0.0
2017-Jun-23 21:59N 36°08' W 005°25'0 0.1
2017-Jun-23 21:29N 36°08' W 005°25'0 0.1
2017-Jun-23 20:56N 36°08' W 005°25'0 0.4
2017-Jun-23 20:29N 36°08' W 005°25'0 0.1
2017-Jun-23 19:59N 36°08' W 005°25'0 0.0
2017-Jun-23 19:29N 36°08' W 005°25'0 0.0
2017-Jun-23 18:59N 36°08' W 005°25'0 0.0
2017-Jun-23 18:29N 36°08' W 005°25'0 0.3
2017-Jun-23 18:00N 36°08' W 005°25'1 1.6
2017-Jun-23 17:30N 36°09' W 005°25'2 4.8
2017-Jun-23 17:00N 36°07' W 005°24'4 7.2
2017-Jun-23 16:28N 36°04' W 005°20'2 4.7
2017-Jun-23 15:58N 36°06' W 005°17'4 8.9
2017-Jun-23 15:30N 36°08' W 005°13'611.1
2017-Jun-23 15:00N 36°12' W 005°08'7 6.6
2017-Jun-23 14:00N 36°15' W 005°01'0 0.9
2017-Jun-23 13:30N 36°15' W 005°01'0 1.0
2017-Jun-23 13:00N 36°14' W 005°01'0 1.0
2017-Jun-23 12:30N 36°14' W 005°01'0 0.5
2017-Jun-23 12:00N 36°14' W 005°01'0 0.6
2017-Jun-23 11:30N 36°13' W 005°01'0 0.2
2017-Jun-23 11:00N 36°13' W 005°01'0 0.2
2017-Jun-23 10:30N 36°13' W 005°01'0 0.1
2017-Jun-23 10:00N 36°13' W 005°01'0 0.2
2017-Jun-23 09:30N 36°13' W 005°01'0 0.5
2017-Jun-23 08:59N 36°14' W 005°01'1 0.5
2017-Jun-23 07:56N 36°14' W 005°01'0 0.5
2017-Jun-23 07:09N 36°14' W 005°02'0 0.4
2017-Jun-23 06:02N 36°14' W 005°02'1 1.0
2017-Jun-23 05:29N 36°15' W 005°03'0 0.7
2017-Jun-23 04:57N 36°15' W 005°03'0 0.7
2017-Jun-23 04:30N 36°15' W 005°04'0 0.6
2017-Jun-23 04:00N 36°14' W 005°04'0 0.5
2017-Jun-23 03:30N 36°14' W 005°04'0 0.6
2017-Jun-23 02:59N 36°14' W 005°04'0 0.2
2017-Jun-23 02:24N 36°14' W 005°04'0 0.7
2017-Jun-23 02:00N 36°14' W 005°05'0 0.5
2017-Jun-23 01:30N 36°14' W 005°05'1 1.7
2017-Jun-23 01:00N 36°13' W 005°05'1 1.4
2017-Jun-23 00:30N 36°13' W 005°06'4 8.2
2017-Jun-23 00:00N 36°09' W 005°09'611.5
2017-Jun-22 23:30N 36°04' W 005°12'612.3
2017-Jun-22 23:00N 35°59' W 005°16'3 5.8
2017-Jun-22 22:30N 35°56' W 005°18'3 5.7
2017-Jun-22 22:00N 35°54' W 005°19'0 0.4
2017-Jun-22 21:29N 35°54' W 005°18'0 0.0
2017-Jun-22 20:59N 35°54' W 005°18'0 0.0
2017-Jun-22 20:29N 35°54' W 005°18'0 0.0
2017-Jun-22 19:59N 35°54' W 005°18'0 0.0
2017-Jun-22 19:29N 35°54' W 005°18'0 0.0
2017-Jun-22 18:59N 35°54' W 005°18'0 0.0
2017-Jun-22 18:29N 35°54' W 005°18'0 0.0
2017-Jun-22 17:59N 35°54' W 005°18'0 0.0
2017-Jun-22 17:29N 35°54' W 005°18'0 0.0
2017-Jun-22 16:59N 35°54' W 005°18'0 0.0
2017-Jun-22 16:29N 35°54' W 005°18'0 0.0
2017-Jun-22 15:59N 35°54' W 005°18'0 0.0
2017-Jun-22 15:29N 35°54' W 005°18'0 0.0
2017-Jun-22 14:56N 35°54' W 005°18'0 0.0
2017-Jun-22 14:29N 35°54' W 005°18'0 0.0
2017-Jun-22 13:29N 35°54' W 005°18'0 0.0
2017-Jun-22 12:59N 35°54' W 005°18'0 0.0
2017-Jun-22 12:29N 35°54' W 005°18'0 0.0
2017-Jun-22 11:56N 35°54' W 005°18'0 0.0
2017-Jun-22 11:29N 35°54' W 005°18'0 0.0
2017-Jun-22 10:59N 35°54' W 005°18'0 0.0
2017-Jun-22 10:29N 35°54' W 005°18'0 0.0
2017-Jun-22 09:59N 35°54' W 005°18'0 0.0
2017-Jun-22 09:29N 35°54' W 005°18'0 0.0
2017-Jun-22 08:59N 35°54' W 005°18'0 0.0
2017-Jun-22 08:29N 35°54' W 005°18'0 0.0
2017-Jun-22 07:59N 35°54' W 005°18'0 0.0
2017-Jun-22 07:29N 35°54' W 005°18'0 0.0
2017-Jun-22 06:59N 35°54' W 005°18'0 0.0
2017-Jun-22 06:29N 35°54' W 005°18'0 0.0
2017-Jun-22 05:56N 35°54' W 005°18'0 0.0
2017-Jun-22 05:29N 35°54' W 005°18'0 0.0
2017-Jun-22 04:56N 35°54' W 005°18'0 0.0
2017-Jun-22 04:26N 35°54' W 005°18'0 0.0
2017-Jun-22 03:59N 35°54' W 005°18'0 0.0
2017-Jun-22 03:26N 35°54' W 005°18'0 0.0
2017-Jun-22 02:56N 35°54' W 005°18'0 0.0
2017-Jun-22 02:26N 35°54' W 005°18'0 0.0
2017-Jun-22 01:56N 35°54' W 005°18'0 0.0
2017-Jun-22 01:26N 35°54' W 005°18'0 0.0
2017-Jun-22 00:56N 35°54' W 005°18'0 0.0
2017-Jun-22 00:26N 35°54' W 005°18'0 0.0
2017-Jun-21 23:56N 35°54' W 005°18'0 0.0
2017-Jun-21 23:26N 35°54' W 005°18'0 0.0
2017-Jun-21 22:59N 35°54' W 005°18'0 0.0
2017-Jun-21 22:29N 35°54' W 005°18'0 0.0
2017-Jun-21 21:59N 35°54' W 005°18'0 0.0
2017-Jun-21 21:29N 35°54' W 005°18'0 0.0
2017-Jun-21 20:59N 35°54' W 005°18'0 0.0
2017-Jun-21 20:26N 35°54' W 005°18'0 0.0
2017-Jun-21 19:59N 35°54' W 005°18'0 0.0
2017-Jun-21 19:29N 35°54' W 005°18'0 0.0
2017-Jun-21 18:59N 35°54' W 005°18'0 0.0
2017-Jun-21 18:29N 35°54' W 005°18'0 0.0
2017-Jun-21 17:59N 35°54' W 005°18'0 0.0
2017-Jun-21 17:29N 35°54' W 005°18'0 0.0
2017-Jun-21 16:59N 35°54' W 005°18'0 0.0
2017-Jun-21 16:29N 35°54' W 005°18'0 0.0
2017-Jun-21 15:59N 35°54' W 005°18'0 0.0
2017-Jun-21 15:29N 35°54' W 005°18'0 0.0
2017-Jun-21 14:59N 35°54' W 005°18'0 0.0
2017-Jun-21 14:26N 35°54' W 005°18'0 0.0
2017-Jun-21 13:29N 35°54' W 005°18'0 0.0
2017-Jun-21 12:59N 35°54' W 005°18'0 0.0
2017-Jun-21 12:29N 35°54' W 005°18'0 0.0
2017-Jun-21 11:59N 35°54' W 005°18'0 0.0
2017-Jun-21 11:29N 35°54' W 005°18'0 0.0
2017-Jun-21 10:59N 35°54' W 005°18'0 0.0
2017-Jun-21 10:29N 35°54' W 005°18'0 0.0
2017-Jun-21 09:59N 35°54' W 005°18'0 0.0
2017-Jun-21 09:29N 35°54' W 005°18'0 0.0
2017-Jun-21 08:59N 35°54' W 005°18'0 0.0
2017-Jun-21 08:29N 35°54' W 005°18'0 0.0
2017-Jun-21 07:59N 35°54' W 005°18'0 0.0
2017-Jun-21 07:29N 35°54' W 005°18'0 0.0
2017-Jun-21 06:59N 35°54' W 005°18'0 0.0
2017-Jun-21 06:29N 35°54' W 005°18'0 0.0
2017-Jun-21 05:59N 35°54' W 005°18'0 0.0
2017-Jun-21 05:29N 35°54' W 005°18'0 0.0
2017-Jun-21 04:59N 35°54' W 005°18'0 0.0
2017-Jun-21 04:29N 35°54' W 005°18'0 0.0
2017-Jun-21 03:59N 35°54' W 005°18'0 0.0
2017-Jun-21 03:26N 35°54' W 005°18'0 0.0
2017-Jun-21 02:56N 35°54' W 005°18'0 0.0
2017-Jun-21 02:26N 35°54' W 005°18'0 0.0
2017-Jun-21 01:59N 35°54' W 005°18'0 0.0
2017-Jun-21 01:26N 35°54' W 005°18'0 0.0
2017-Jun-21 00:59N 35°54' W 005°18'0 0.0
2017-Jun-21 00:29N 35°54' W 005°18'0 0.0
2017-Jun-20 23:59N 35°54' W 005°18'0 0.0
2017-Jun-20 23:29N 35°54' W 005°18'0 0.0
2017-Jun-20 22:59N 35°54' W 005°18'0 0.0
2017-Jun-20 22:29N 35°54' W 005°18'0 0.0
2017-Jun-20 21:59N 35°54' W 005°18'0 0.0
2017-Jun-20 21:29N 35°54' W 005°18'0 0.0
2017-Jun-20 20:59N 35°54' W 005°18'0 0.0
2017-Jun-20 20:29N 35°54' W 005°18'0 0.0
2017-Jun-20 19:59N 35°54' W 005°18'1 1.3
2017-Jun-20 19:31N 35°54' W 005°19'1 2.0
2017-Jun-20 19:01N 35°55' W 005°18'2 4.8
2017-Jun-20 18:30N 35°56' W 005°20'0 0.9
2017-Jun-20 18:01N 35°56' W 005°20'1 2.4
2017-Jun-20 17:30N 35°55' W 005°19'1 1.2
2017-Jun-20 17:01N 35°56' W 005°19'0 0.9
2017-Jun-20 16:31N 35°56' W 005°19'1 1.7
2017-Jun-20 16:00N 35°56' W 005°20'0 0.1
2017-Jun-20 15:31N 35°56' W 005°20'0 0.4
2017-Jun-20 15:01N 35°56' W 005°20'3 6.3
2017-Jun-20 14:30N 35°57' W 005°24'1212.1
2017-Jun-20 13:30N 35°54' W 005°39'16713.7
2017-Jun-20 01:18N 36°25' W 009°02'814.7
2017-Jun-20 00:44N 36°27' W 009°12'414.6
2017-Jun-20 00:27N 36°28' W 009°17'614.4
2017-Jun-20 00:00N 36°32' W 009°23'714.4
2017-Jun-19 23:29N 36°38' W 009°29'715.0
2017-Jun-19 23:00N 36°43' W 009°35'714.2
2017-Jun-19 22:30N 36°49' W 009°39'714.8
2017-Jun-19 22:00N 36°57' W 009°41'714.9
2017-Jun-19 21:30N 37°04' W 009°43'815.2
2017-Jun-19 21:00N 37°11' W 009°46'714.8
2017-Jun-19 20:30N 37°18' W 009°48'714.9
2017-Jun-19 20:00N 37°26' W 009°50'714.8
2017-Jun-19 19:30N 37°33' W 009°52'715.0
2017-Jun-19 19:00N 37°40' W 009°54'815.0
2017-Jun-19 18:30N 37°48' W 009°56'714.7
2017-Jun-19 18:00N 37°55' W 009°58'714.6
2017-Jun-19 17:30N 38°02' W 010°00'714.7
2017-Jun-19 17:00N 38°09' W 010°02'714.8
2017-Jun-19 16:30N 38°16' W 010°05'715.1
2017-Jun-19 16:00N 38°23' W 010°07'815.1
2017-Jun-19 15:30N 38°31' W 010°09'714.8
2017-Jun-19 15:00N 38°38' W 010°11'714.9
2017-Jun-19 14:30N 38°46' W 010°11'1515.0
2017-Jun-19 13:30N 39°01' W 010°12'815.1
2017-Jun-19 13:00N 39°08' W 010°12'815.0
2017-Jun-19 12:30N 39°16' W 010°12'714.6
2017-Jun-19 12:00N 39°23' W 010°12'714.7
2017-Jun-19 11:30N 39°30' W 010°12'714.8
2017-Jun-19 11:00N 39°38' W 010°12'815.1
2017-Jun-19 10:30N 39°45' W 010°13'714.8
2017-Jun-19 10:00N 39°53' W 010°14'1014.7
2017-Jun-19 09:19N 40°03' W 010°17'1513.2
2017-Jun-19 08:13N 40°17' W 010°12'314.9
2017-Jun-19 08:00N 40°20' W 010°12'814.9
2017-Jun-19 07:30N 40°27' W 010°12'815.1
2017-Jun-19 07:00N 40°35' W 010°12'714.9
2017-Jun-19 06:31N 40°42' W 010°12'815.0
2017-Jun-19 06:00N 40°50' W 010°12'815.0
2017-Jun-19 05:30N 40°57' W 010°12'815.2
2017-Jun-19 05:01N 41°05' W 010°12'815.2
2017-Jun-19 04:31N 41°12' W 010°12'815.1
2017-Jun-19 04:00N 41°20' W 010°11'815.4
2017-Jun-19 03:30N 41°28' W 010°11'815.2
2017-Jun-19 03:00N 41°35' W 010°11'715.0
2017-Jun-19 02:30N 41°43' W 010°11'815.1
2017-Jun-19 02:00N 41°50' W 010°11'  
Track history (hours):
 
Tides and Currents Weather Stations Pressure Air Temp Water Temp Dewpoint Dewpoint Depression Visibility Wind Speed Wind Dir Waves Ship Positions

Sichem Hawk

Last reported at 2017-Jun-29 01:56 UTC. Time now 2017-Jun-29 02:15 UTC.
Position N 28°08' W 015°25'.

Length 170 m; draft 8.2 m.

Type: Ship. MMSI: 249445000.

Date/timePositionNaut miles runAvg speedWind from/ knotsBaromVisibWave heightAir tempDewpointWater temp
2017-Jun-29 01:56N 28°08' W 015°25'0 0.0
2017-Jun-29 01:29N 28°08' W 015°25'0 0.0
2017-Jun-29 00:59N 28°08' W 015°25'0 0.0
2017-Jun-29 00:29N 28°08' W 015°25'0 0.0
2017-Jun-28 23:59N 28°08' W 015°25'0 0.0
2017-Jun-28 23:29N 28°08' W 015°25'0 0.0
2017-Jun-28 22:59N 28°08' W 015°25'0 0.0
2017-Jun-28 22:29N 28°08' W 015°25'0 0.0
2017-Jun-28 21:56N 28°08' W 015°25'0 0.0
2017-Jun-28 21:29N 28°08' W 015°25'0 0.0
2017-Jun-28 20:59N 28°08' W 015°25'0 0.0
2017-Jun-28 20:29N 28°08' W 015°25'0 0.0
2017-Jun-28 19:59N 28°08' W 015°25'0 0.0
2017-Jun-28 19:29N 28°08' W 015°25'0 0.0
2017-Jun-28 19:01N 28°08' W 015°25'1 2.9
2017-Jun-28 18:30N 28°07' W 015°24'2 3.9
2017-Jun-28 18:00N 28°07' W 015°22'2 4.9
2017-Jun-28 17:30N 28°09' W 015°20'4 7.3
2017-Jun-28 17:00N 28°12' W 015°18'612.2
2017-Jun-28 16:30N 28°16' W 015°13'714.4
2017-Jun-28 16:00N 28°21' W 015°07'714.7
2017-Jun-28 15:30N 28°26' W 015°01'714.7
2017-Jun-28 15:00N 28°32' W 014°55'1514.6
2017-Jun-28 14:00N 28°42' W 014°43'714.6
2017-Jun-28 13:30N 28°47' W 014°38'714.6
2017-Jun-28 13:00N 28°53' W 014°32'714.5
2017-Jun-28 12:30N 28°58' W 014°26'714.7
2017-Jun-28 12:00N 29°03' W 014°20'714.5
2017-Jun-28 11:30N 29°08' W 014°14'714.9
2017-Jun-28 11:00N 29°13' W 014°08'714.8
2017-Jun-28 10:30N 29°19' W 014°02'714.8
2017-Jun-28 10:00N 29°24' W 013°57'714.7
2017-Jun-28 09:30N 29°29' W 013°51'714.6
2017-Jun-28 09:00N 29°35' W 013°45'714.4
2017-Jun-28 08:30N 29°40' W 013°39'714.3
2017-Jun-28 08:00N 29°45' W 013°33'714.6
2017-Jun-28 07:30N 29°50' W 013°27'714.9
2017-Jun-28 07:00N 29°55' W 013°21'815.2
2017-Jun-28 06:30N 30°01' W 013°15'815.1
2017-Jun-28 06:00N 30°06' W 013°09'815.4
2017-Jun-28 05:30N 30°12' W 013°03'815.9
2017-Jun-28 05:00N 30°17' W 012°56'1216.3
2017-Jun-28 04:15N 30°26' W 012°47'516.3
2017-Jun-28 03:58N 30°30' W 012°43'1316.2
2017-Jun-28 03:08N 30°39' W 012°32'516.0
2017-Jun-28 02:51N 30°43' W 012°28'715.8
2017-Jun-28 02:25N 30°47' W 012°23'1016.0
2017-Jun-28 01:46N 30°55' W 012°14'416.1
2017-Jun-28 01:30N 30°57' W 012°10'816.2
2017-Jun-28 01:00N 31°03' W 012°03'916.4
2017-Jun-28 00:28N 31°09' W 011°56'1015.9
2017-Jun-27 23:50N 31°17' W 011°48'816.0
2017-Jun-27 23:20N 31°22' W 011°42'716.0
2017-Jun-27 22:55N 31°27' W 011°36'616.0
2017-Jun-27 22:30N 31°32' W 011°31'815.8
2017-Jun-27 22:00N 31°38' W 011°25'816.0
2017-Jun-27 21:30N 31°44' W 011°18'815.9
2017-Jun-27 21:00N 31°49' W 011°12'815.8
2017-Jun-27 20:30N 31°55' W 011°05'1215.7
2017-Jun-27 19:44N 32°03' W 010°55'715.8
2017-Jun-27 19:15N 32°09' W 010°49'815.6
2017-Jun-27 18:46N 32°14' W 010°42'515.5
2017-Jun-27 18:28N 32°17' W 010°38'815.5
2017-Jun-27 17:58N 32°22' W 010°32'915.3
2017-Jun-27 17:23N 32°29' W 010°24'3215.9
2017-Jun-27 15:24N 32°52' W 009°59'2515.8
2017-Jun-27 13:50N 33°10' W 009°38'615.6
2017-Jun-27 13:27N 33°14' W 009°33'1616.0
2017-Jun-27 12:29N 33°25' W 009°19'18315.2
2017-Jun-27 00:26N 35°36' W 006°44'615.0
2017-Jun-27 00:00N 35°40' W 006°38'714.8
2017-Jun-26 23:30N 35°46' W 006°32'814.9
2017-Jun-26 22:58N 35°52' W 006°25'913.7
2017-Jun-26 22:20N 35°57' W 006°17'514.9
2017-Jun-26 22:00N 35°57' W 006°11'1114.1
2017-Jun-26 21:13N 35°57' W 005°57'613.2
2017-Jun-26 20:47N 35°57' W 005°50'911.6
2017-Jun-26 19:59N 35°57' W 005°38'510.3
2017-Jun-26 19:31N 35°59' W 005°33'510.8
2017-Jun-26 19:00N 36°01' W 005°26'611.3
2017-Jun-26 18:30N 36°06' W 005°23'4 8.2
2017-Jun-26 18:00N 36°10' W 005°24'1 0.0
2017-Jun-25 14:18N 36°11' W 005°24'2 3.0
2017-Jun-25 13:30N 36°08' W 005°25'0 0.1
2017-Jun-25 12:59N 36°08' W 005°25'0 0.0
2017-Jun-25 12:05N 36°08' W 005°25'0 0.1
2017-Jun-25 11:59N 36°08' W 005°25'0 0.0
2017-Jun-25 11:29N 36°08' W 005°25'0 0.1
2017-Jun-25 10:59N 36°08' W 005°25'0 0.0
2017-Jun-25 07:11N 36°08' W 005°25'0 0.0
2017-Jun-25 06:41N 36°08' W 005°25'0 0.0
2017-Jun-25 06:29N 36°08' W 005°25'0 0.1
2017-Jun-25 05:53N 36°08' W 005°25'0 0.1
2017-Jun-25 05:29N 36°08' W 005°25'0 0.1
2017-Jun-25 04:59N 36°08' W 005°25'0 0.2
2017-Jun-25 04:29N 36°08' W 005°25'0 0.2
2017-Jun-25 03:59N 36°08' W 005°25'0 0.2
2017-Jun-25 03:23N 36°08' W 005°25'0 0.1
2017-Jun-25 02:59N 36°08' W 005°25'0 0.1
2017-Jun-25 02:29N 36°08' W 005°25'0 0.2
2017-Jun-25 01:53N 36°08' W 005°25'0 0.2
2017-Jun-25 01:29N 36°08' W 005°25'0 0.0
2017-Jun-25 00:56N 36°08' W 005°25'0 0.0
2017-Jun-25 00:29N 36°08' W 005°25'0 0.1
2017-Jun-24 23:47N 36°08' W 005°25'0 0.5
2017-Jun-24 23:29N 36°08' W 005°25'0 0.1
2017-Jun-24 22:59N 36°08' W 005°25'0 0.1
2017-Jun-24 22:29N 36°08' W 005°25'0 0.0
2017-Jun-24 21:59N 36°08' W 005°25'0 0.2
2017-Jun-24 21:05N 36°08' W 005°25'0 0.1
2017-Jun-24 20:47N 36°08' W 005°25'0 0.0
2017-Jun-24 20:29N 36°08' W 005°25'0 0.0
2017-Jun-24 19:59N 36°08' W 005°25'0 0.0
2017-Jun-24 19:29N 36°08' W 005°25'0 0.0
2017-Jun-24 18:59N 36°08' W 005°25'0 0.0
2017-Jun-24 18:29N 36°08' W 005°25'0 0.1
2017-Jun-24 17:53N 36°08' W 005°25'0 0.1
2017-Jun-24 17:29N 36°08' W 005°25'0 0.0
2017-Jun-24 16:56N 36°08' W 005°25'0 0.0
2017-Jun-24 16:29N 36°08' W 005°25'0 0.1
2017-Jun-24 15:47N 36°08' W 005°25'0 0.2
2017-Jun-24 15:17N 36°08' W 005°25'0 0.3
2017-Jun-24 14:59N 36°08' W 005°25'0 0.1
2017-Jun-24 13:59N 36°08' W 005°25'0 0.1
2017-Jun-24 13:23N 36°08' W 005°25'0 0.1
2017-Jun-24 12:59N 36°08' W 005°25'0 0.1
2017-Jun-24 12:29N 36°08' W 005°25'0 0.0
2017-Jun-24 11:59N 36°08' W 005°25'0 0.1
2017-Jun-24 11:29N 36°08' W 005°25'0 0.0
2017-Jun-24 10:59N 36°08' W 005°25'0 0.1
2017-Jun-24 10:29N 36°08' W 005°25'0 0.0
2017-Jun-24 09:47N 36°08' W 005°25'0 0.3
2017-Jun-24 09:29N 36°08' W 005°25'0 0.1
2017-Jun-24 08:53N 36°08' W 005°25'0 0.2
2017-Jun-24 08:23N 36°08' W 005°25'0 0.1
2017-Jun-24 07:56N 36°08' W 005°25'0 0.1
2017-Jun-24 07:29N 36°08' W 005°25'0 0.0
2017-Jun-24 06:56N 36°08' W 005°25'0 0.1
2017-Jun-24 06:23N 36°08' W 005°25'0 0.0
2017-Jun-24 05:59N 36°08' W 005°25'0 0.1
2017-Jun-24 05:29N 36°08' W 005°25'0 0.0
2017-Jun-24 04:59N 36°08' W 005°25'0 0.1
2017-Jun-24 04:29N 36°08' W 005°25'0 0.0
2017-Jun-24 03:53N 36°08' W 005°25'0 0.0
2017-Jun-24 03:29N 36°08' W 005°25'0 0.0
2017-Jun-24 02:59N 36°08' W 005°25'0 0.0
2017-Jun-24 02:29N 36°08' W 005°25'0 0.1
2017-Jun-24 01:59N 36°08' W 005°25'0 0.1
2017-Jun-24 01:29N 36°08' W 005°25'0 0.1
2017-Jun-24 00:56N 36°08' W 005°25'0 0.1
2017-Jun-24 00:29N 36°08' W 005°25'0 0.1
2017-Jun-23 23:59N 36°08' W 005°25'0 0.2
2017-Jun-23 23:29N 36°08' W 005°25'0 0.3
2017-Jun-23 22:59N 36°08' W 005°25'0 0.1
2017-Jun-23 22:29N 36°08' W 005°25'0 0.0
2017-Jun-23 21:59N 36°08' W 005°25'0 0.1
2017-Jun-23 21:29N 36°08' W 005°25'0 0.1
2017-Jun-23 20:56N 36°08' W 005°25'0 0.4
2017-Jun-23 20:29N 36°08' W 005°25'0 0.1
2017-Jun-23 19:59N 36°08' W 005°25'0 0.0
2017-Jun-23 19:29N 36°08' W 005°25'0 0.0
2017-Jun-23 18:59N 36°08' W 005°25'0 0.0
2017-Jun-23 18:29N 36°08' W 005°25'0 0.3
2017-Jun-23 18:00N 36°08' W 005°25'1 1.6
2017-Jun-23 17:30N 36°09' W 005°25'2 4.8
2017-Jun-23 17:00N 36°07' W 005°24'4 7.2
2017-Jun-23 16:28N 36°04' W 005°20'2 4.7
2017-Jun-23 15:58N 36°06' W 005°17'4 8.9
2017-Jun-23 15:30N 36°08' W 005°13'611.1
2017-Jun-23 15:00N 36°12' W 005°08'7 6.6
2017-Jun-23 14:00N 36°15' W 005°01'0 0.9
2017-Jun-23 13:30N 36°15' W 005°01'0 1.0
2017-Jun-23 13:00N 36°14' W 005°01'0 1.0
2017-Jun-23 12:30N 36°14' W 005°01'0 0.5
2017-Jun-23 12:00N 36°14' W 005°01'0 0.6
2017-Jun-23 11:30N 36°13' W 005°01'0 0.2
2017-Jun-23 11:00N 36°13' W 005°01'0 0.2
2017-Jun-23 10:30N 36°13' W 005°01'0 0.1
2017-Jun-23 10:00N 36°13' W 005°01'0 0.2
2017-Jun-23 09:30N 36°13' W 005°01'0 0.5
2017-Jun-23 08:59N 36°14' W 005°01'1 0.5
2017-Jun-23 07:56N 36°14' W 005°01'0 0.5
2017-Jun-23 07:09N 36°14' W 005°02'0 0.4
2017-Jun-23 06:02N 36°14' W 005°02'1 1.0
2017-Jun-23 05:29N 36°15' W 005°03'0 0.7
2017-Jun-23 04:57N 36°15' W 005°03'0 0.7
2017-Jun-23 04:30N 36°15' W 005°04'0 0.6
2017-Jun-23 04:00N 36°14' W 005°04'0 0.5
2017-Jun-23 03:30N 36°14' W 005°04'0 0.6
2017-Jun-23 02:59N 36°14' W 005°04'0 0.2
2017-Jun-23 02:24N 36°14' W 005°04'0 0.7
2017-Jun-23 02:00N 36°14' W 005°05'0 0.5
2017-Jun-23 01:30N 36°14' W 005°05'1 1.7
2017-Jun-23 01:00N 36°13' W 005°05'1 1.4
2017-Jun-23 00:30N 36°13' W 005°06'4 8.2
2017-Jun-23 00:00N 36°09' W 005°09'611.5
2017-Jun-22 23:30N 36°04' W 005°12'612.3
2017-Jun-22 23:00N 35°59' W 005°16'3 5.8
2017-Jun-22 22:30N 35°56' W 005°18'3 5.7
2017-Jun-22 22:00N 35°54' W 005°19'0 0.4
2017-Jun-22 21:29N 35°54' W 005°18'0 0.0
2017-Jun-22 20:59N 35°54' W 005°18'0 0.0
2017-Jun-22 20:29N 35°54' W 005°18'0 0.0
2017-Jun-22 19:59N 35°54' W 005°18'0 0.0
2017-Jun-22 19:29N 35°54' W 005°18'0 0.0
2017-Jun-22 18:59N 35°54' W 005°18'0 0.0
2017-Jun-22 18:29N 35°54' W 005°18'0 0.0
2017-Jun-22 17:59N 35°54' W 005°18'0 0.0
2017-Jun-22 17:29N 35°54' W 005°18'0 0.0
2017-Jun-22 16:59N 35°54' W 005°18'0 0.0
2017-Jun-22 16:29N 35°54' W 005°18'0 0.0
2017-Jun-22 15:59N 35°54' W 005°18'0 0.0
2017-Jun-22 15:29N 35°54' W 005°18'0 0.0
2017-Jun-22 14:56N 35°54' W 005°18'0 0.0
2017-Jun-22 14:29N 35°54' W 005°18'0 0.0
2017-Jun-22 13:29N 35°54' W 005°18'0 0.0
2017-Jun-22 12:59N 35°54' W 005°18'0 0.0
2017-Jun-22 12:29N 35°54' W 005°18'0 0.0
2017-Jun-22 11:56N 35°54' W 005°18'0 0.0
2017-Jun-22 11:29N 35°54' W 005°18'0 0.0
2017-Jun-22 10:59N 35°54' W 005°18'0 0.0
2017-Jun-22 10:29N 35°54' W 005°18'0 0.0
2017-Jun-22 09:59N 35°54' W 005°18'0 0.0
2017-Jun-22 09:29N 35°54' W 005°18'0 0.0
2017-Jun-22 08:59N 35°54' W 005°18'0 0.0
2017-Jun-22 08:29N 35°54' W 005°18'0 0.0
2017-Jun-22 07:59N 35°54' W 005°18'0 0.0
2017-Jun-22 07:29N 35°54' W 005°18'0 0.0
2017-Jun-22 06:59N 35°54' W 005°18'0 0.0
2017-Jun-22 06:29N 35°54' W 005°18'0 0.0
2017-Jun-22 05:56N 35°54' W 005°18'0 0.0
2017-Jun-22 05:29N 35°54' W 005°18'0 0.0
2017-Jun-22 04:56N 35°54' W 005°18'0 0.0
2017-Jun-22 04:26N 35°54' W 005°18'0 0.0
2017-Jun-22 03:59N 35°54' W 005°18'0 0.0
2017-Jun-22 03:26N 35°54' W 005°18'0 0.0
2017-Jun-22 02:56N 35°54' W 005°18'0 0.0
2017-Jun-22 02:26N 35°54' W 005°18'0 0.0
2017-Jun-22 01:56N 35°54' W 005°18'0 0.0
2017-Jun-22 01:26N 35°54' W 005°18'0 0.0
2017-Jun-22 00:56N 35°54' W 005°18'0 0.0
2017-Jun-22 00:26N 35°54' W 005°18'0 0.0
2017-Jun-21 23:56N 35°54' W 005°18'0 0.0
2017-Jun-21 23:26N 35°54' W 005°18'0 0.0
2017-Jun-21 22:59N 35°54' W 005°18'0 0.0
2017-Jun-21 22:29N 35°54' W 005°18'0 0.0
2017-Jun-21 21:59N 35°54' W 005°18'0 0.0
2017-Jun-21 21:29N 35°54' W 005°18'0 0.0
2017-Jun-21 20:59N 35°54' W 005°18'0 0.0
2017-Jun-21 20:26N 35°54' W 005°18'0 0.0
2017-Jun-21 19:59N 35°54' W 005°18'0 0.0
2017-Jun-21 19:29N 35°54' W 005°18'0 0.0
2017-Jun-21 18:59N 35°54' W 005°18'0 0.0
2017-Jun-21 18:29N 35°54' W 005°18'0 0.0
2017-Jun-21 17:59N 35°54' W 005°18'0 0.0
2017-Jun-21 17:29N 35°54' W 005°18'0 0.0
2017-Jun-21 16:59N 35°54' W 005°18'0 0.0
2017-Jun-21 16:29N 35°54' W 005°18'0 0.0
2017-Jun-21 15:59N 35°54' W 005°18'0 0.0
2017-Jun-21 15:29N 35°54' W 005°18'0 0.0
2017-Jun-21 14:59N 35°54' W 005°18'0 0.0
2017-Jun-21 14:26N 35°54' W 005°18'0 0.0
2017-Jun-21 13:29N 35°54' W 005°18'0 0.0
2017-Jun-21 12:59N 35°54' W 005°18'0 0.0
2017-Jun-21 12:29N 35°54' W 005°18'0 0.0
2017-Jun-21 11:59N 35°54' W 005°18'0 0.0
2017-Jun-21 11:29N 35°54' W 005°18'0 0.0
2017-Jun-21 10:59N 35°54' W 005°18'0 0.0
2017-Jun-21 10:29N 35°54' W 005°18'0 0.0
2017-Jun-21 09:59N 35°54' W 005°18'0 0.0
2017-Jun-21 09:29N 35°54' W 005°18'0 0.0
2017-Jun-21 08:59N 35°54' W 005°18'0 0.0
2017-Jun-21 08:29N 35°54' W 005°18'0 0.0
2017-Jun-21 07:59N 35°54' W 005°18'0 0.0
2017-Jun-21 07:29N 35°54' W 005°18'0 0.0
2017-Jun-21 06:59N 35°54' W 005°18'0 0.0
2017-Jun-21 06:29N 35°54' W 005°18'0 0.0
2017-Jun-21 05:59N 35°54' W 005°18'0 0.0
2017-Jun-21 05:29N 35°54' W 005°18'0 0.0
2017-Jun-21 04:59N 35°54' W 005°18'0 0.0
2017-Jun-21 04:29N 35°54' W 005°18'0 0.0
2017-Jun-21 03:59N 35°54' W 005°18'0 0.0
2017-Jun-21 03:26N 35°54' W 005°18'0 0.0
2017-Jun-21 02:56N 35°54' W 005°18'0 0.0
2017-Jun-21 02:26N 35°54' W 005°18'0 0.0
2017-Jun-21 01:59N 35°54' W 005°18'0 0.0
2017-Jun-21 01:26N 35°54' W 005°18'0 0.0
2017-Jun-21 00:59N 35°54' W 005°18'0 0.0
2017-Jun-21 00:29N 35°54' W 005°18'0 0.0
2017-Jun-20 23:59N 35°54' W 005°18'0 0.0
2017-Jun-20 23:29N 35°54' W 005°18'0 0.0
2017-Jun-20 22:59N 35°54' W 005°18'0 0.0
2017-Jun-20 22:29N 35°54' W 005°18'0 0.0
2017-Jun-20 21:59N 35°54' W 005°18'0 0.0
2017-Jun-20 21:29N 35°54' W 005°18'0 0.0
2017-Jun-20 20:59N 35°54' W 005°18'0 0.0
2017-Jun-20 20:29N 35°54' W 005°18'0 0.0
2017-Jun-20 19:59N 35°54' W 005°18'1 1.3
2017-Jun-20 19:31N 35°54' W 005°19'1 2.0
2017-Jun-20 19:01N 35°55' W 005°18'2 4.8
2017-Jun-20 18:30N 35°56' W 005°20'0 0.9
2017-Jun-20 18:01N 35°56' W 005°20'1 2.4
2017-Jun-20 17:30N 35°55' W 005°19'1 1.2
2017-Jun-20 17:01N 35°56' W 005°19'0 0.9
2017-Jun-20 16:31N 35°56' W 005°19'1 1.7
2017-Jun-20 16:00N 35°56' W 005°20'0 0.1
2017-Jun-20 15:31N 35°56' W 005°20'0 0.4
2017-Jun-20 15:01N 35°56' W 005°20'3 6.3
2017-Jun-20 14:30N 35°57' W 005°24'1212.1
2017-Jun-20 13:30N 35°54' W 005°39'16713.7
2017-Jun-20 01:18N 36°25' W 009°02'814.7
2017-Jun-20 00:44N 36°27' W 009°12'414.6
2017-Jun-20 00:27N 36°28' W 009°17'614.4
2017-Jun-20 00:00N 36°32' W 009°23'714.4
2017-Jun-19 23:29N 36°38' W 009°29'715.0
2017-Jun-19 23:00N 36°43' W 009°35'714.2
2017-Jun-19 22:30N 36°49' W 009°39'714.8
2017-Jun-19 22:00N 36°57' W 009°41'714.9
2017-Jun-19 21:30N 37°04' W 009°43'815.2
2017-Jun-19 21:00N 37°11' W 009°46'714.8
2017-Jun-19 20:30N 37°18' W 009°48'714.9
2017-Jun-19 20:00N 37°26' W 009°50'714.8
2017-Jun-19 19:30N 37°33' W 009°52'715.0
2017-Jun-19 19:00N 37°40' W 009°54'815.0
2017-Jun-19 18:30N 37°48' W 009°56'714.7
2017-Jun-19 18:00N 37°55' W 009°58'714.6
2017-Jun-19 17:30N 38°02' W 010°00'714.7
2017-Jun-19 17:00N 38°09' W 010°02'714.8
2017-Jun-19 16:30N 38°16' W 010°05'715.1
2017-Jun-19 16:00N 38°23' W 010°07'815.1
2017-Jun-19 15:30N 38°31' W 010°09'714.8
2017-Jun-19 15:00N 38°38' W 010°11'714.9
2017-Jun-19 14:30N 38°46' W 010°11'1515.0
2017-Jun-19 13:30N 39°01' W 010°12'815.1
2017-Jun-19 13:00N 39°08' W 010°12'815.0
2017-Jun-19 12:30N 39°16' W 010°12'714.6
2017-Jun-19 12:00N 39°23' W 010°12'714.7
2017-Jun-19 11:30N 39°30' W 010°12'714.8
2017-Jun-19 11:00N 39°38' W 010°12'815.1
2017-Jun-19 10:30N 39°45' W 010°13'714.8
2017-Jun-19 10:00N 39°53' W 010°14'1014.7
2017-Jun-19 09:19N 40°03' W 010°17'1513.2
2017-Jun-19 08:13N 40°17' W 010°12'314.9
2017-Jun-19 08:00N 40°20' W 010°12'814.9
2017-Jun-19 07:30N 40°27' W 010°12'815.1
2017-Jun-19 07:00N 40°35' W 010°12'714.9
2017-Jun-19 06:31N 40°42' W 010°12'815.0
2017-Jun-19 06:00N 40°50' W 010°12'815.0
2017-Jun-19 05:30N 40°57' W 010°12'815.2
2017-Jun-19 05:01N 41°05' W 010°12'815.2
2017-Jun-19 04:31N 41°12' W 010°12'815.1
2017-Jun-19 04:00N 41°20' W 010°11'815.4
2017-Jun-19 03:30N 41°28' W 010°11'815.2
2017-Jun-19 03:00N 41°35' W 010°11'715.0
2017-Jun-19 02:30N 41°43' W 010°11'815.1
2017-Jun-19 02:00N 41°50' W 010°11'  

Dump ship's entire track history